Time;durP1;ratioP1;P1;durP2;ratioP2;P2;SDS_P1;SDS_P2;PMS_P1;PMS_P2;Temp;Humidity;BMP_temperature;BMP_pressure;BME280_temperature;BME280_humidity;BME280_pressure;Samples;Min_cycle;Max_cycle;Signal;HPM_P1;HPM_P2
2022/02/25 00:00:06;;;;;;;3.75;1.63;;;4.20;99.90;;;;;;5161449;23;20020;-65
2022/02/25 00:02:07;;;;;;;3.95;1.40;;;4.20;99.90;;;;;;5165699;23;20023;-63
2022/02/25 00:04:07;;;;;;;3.17;1.33;;;4.20;99.90;;;;;;5166385;23;20013;-63
2022/02/25 00:06:08;;;;;;;5.20;1.50;;;4.10;99.90;;;;;;5164947;23;20444;-63
2022/02/25 00:08:09;;;;;;;5.00;1.70;;;4.10;99.90;;;;;;5164731;23;20384;-63
2022/02/25 00:10:13;;;;;;;4.50;1.65;;;4.20;99.90;;;;;;5164821;23;20432;-65
2022/02/25 00:12:13;;;;;;;6.13;1.90;;;4.20;99.90;;;;;;5165660;23;20015;-64
2022/02/25 00:14:15;;;;;;;3.17;1.42;;;4.10;99.90;;;;;;5165674;23;20004;-64
2022/02/25 00:16:15;;;;;;;4.18;1.70;;;4.20;99.90;;;;;;5165098;23;20004;-63
2022/02/25 00:18:16;;;;;;;5.75;1.35;;;4.20;99.90;;;;;;5166265;23;20089;-63
2022/02/25 00:20:17;;;;;;;4.35;1.80;;;4.10;99.90;;;;;;5165149;23;20008;-65
2022/02/25 00:22:17;;;;;;;4.28;1.73;;;4.10;99.90;;;;;;5167266;23;20016;-65
2022/02/25 00:24:18;;;;;;;4.85;1.67;;;4.10;99.90;;;;;;5167971;23;20008;-65
2022/02/25 00:26:19;;;;;;;6.28;1.80;;;4.10;99.90;;;;;;5166511;23;20418;-64
2022/02/25 00:28:19;;;;;;;5.30;1.88;;;4.10;99.90;;;;;;5165724;23;20023;-64
2022/02/25 00:30:20;;;;;;;4.88;1.70;;;4.10;99.90;;;;;;5166741;23;20004;-64
2022/02/25 00:32:21;;;;;;;3.35;1.70;;;4.10;99.90;;;;;;5167299;23;20012;-63
2022/02/25 00:34:21;;;;;;;4.68;1.60;;;4.10;99.90;;;;;;5167114;23;20042;-64
2022/02/25 00:36:22;;;;;;;4.45;1.60;;;4.10;99.90;;;;;;5163855;23;20004;-64
2022/02/25 00:38:23;;;;;;;4.10;1.90;;;4.10;99.90;;;;;;5166810;23;20012;-63
2022/02/25 00:40:23;;;;;;;5.00;1.67;;;4.10;99.90;;;;;;5165536;23;20499;-63
2022/02/25 00:42:24;;;;;;;2.97;1.40;;;4.10;99.90;;;;;;5166805;23;20012;-63
2022/02/25 00:44:25;;;;;;;5.72;1.42;;;4.20;99.90;;;;;;5166449;23;20026;-64
2022/02/25 00:46:25;;;;;;;5.05;1.92;;;4.20;99.90;;;;;;5166049;23;20016;-64
2022/02/25 00:48:26;;;;;;;2.90;1.45;;;4.20;99.90;;;;;;5167171;23;20110;-64
2022/02/25 00:50:27;;;;;;;3.92;1.42;;;4.30;99.90;;;;;;5166067;23;20094;-63
2022/02/25 00:52:28;;;;;;;4.78;1.92;;;4.20;99.90;;;;;;5167028;23;20095;-64
2022/02/25 00:54:28;;;;;;;5.57;2.05;;;4.20;99.90;;;;;;5165537;23;20456;-63
2022/02/25 00:56:29;;;;;;;3.92;2.15;;;4.10;99.90;;;;;;5166458;23;20010;-63
2022/02/25 00:58:30;;;;;;;5.57;2.00;;;4.10;99.90;;;;;;5166521;23;20044;-65
2022/02/25 01:00:31;;;;;;;4.32;1.50;;;4.10;99.90;;;;;;5138113;23;20102;-63
2022/02/25 01:02:31;;;;;;;4.07;2.25;;;4.10;99.90;;;;;;5165763;23;20016;-63
2022/02/25 01:04:32;;;;;;;3.90;1.70;;;4.10;99.90;;;;;;5165912;23;20047;-64
2022/02/25 01:06:33;;;;;;;7.07;2.10;;;4.10;99.90;;;;;;5164336;23;20436;-63
2022/02/25 01:08:33;;;;;;;7.93;2.28;;;4.10;99.90;;;;;;5165175;23;20477;-63
2022/02/25 01:10:35;;;;;;;4.25;1.90;;;4.10;99.90;;;;;;5164558;23;20072;-63
2022/02/25 01:12:36;;;;;;;4.57;1.90;;;4.10;99.90;;;;;;5165041;23;20005;-63
2022/02/25 01:14:37;;;;;;;8.85;2.17;;;4.10;99.90;;;;;;5165963;23;20152;-63
2022/02/25 01:16:38;;;;;;;5.60;1.83;;;4.10;99.90;;;;;;5165667;23;20332;-65
2022/02/25 01:18:38;;;;;;;13.20;3.15;;;4.10;99.90;;;;;;5165881;23;20092;-62
2022/02/25 01:20:39;;;;;;;7.32;1.80;;;4.10;99.90;;;;;;5164807;23;20008;-63
2022/02/25 01:22:40;;;;;;;7.40;2.10;;;4.00;99.90;;;;;;5165023;23;20444;-63
2022/02/25 01:24:41;;;;;;;4.03;1.77;;;4.10;99.90;;;;;;5165869;23;20058;-63
2022/02/25 01:26:42;;;;;;;5.97;2.10;;;4.10;99.90;;;;;;5164836;23;20008;-63
2022/02/25 01:28:43;;;;;;;7.95;2.20;;;4.10;99.90;;;;;;5165055;23;20016;-63
2022/02/25 01:30:43;;;;;;;3.25;1.40;;;4.00;99.90;;;;;;5164893;23;20016;-64
2022/02/25 01:32:44;;;;;;;5.05;1.80;;;4.00;99.90;;;;;;5165317;23;20053;-64
2022/02/25 01:34:44;;;;;;;7.05;1.95;;;4.00;99.90;;;;;;5165573;23;20012;-65
2022/02/25 01:36:45;;;;;;;7.00;2.28;;;4.00;99.90;;;;;;5164017;23;20072;-64
2022/02/25 01:38:46;;;;;;;5.43;1.70;;;4.00;99.90;;;;;;5164827;23;20011;-64
2022/02/25 01:40:49;;;;;;;6.72;2.13;;;4.00;99.90;;;;;;5163541;23;20012;-64
2022/02/25 01:42:51;;;;;;;6.88;1.77;;;4.00;99.90;;;;;;5164499;23;20032;-63
2022/02/25 01:44:52;;;;;;;;;;;4.10;99.90;;;;;;5167351;23;20080;-63
2022/02/25 01:47:00;;;;;;;4.93;1.88;;;4.10;99.90;;;;;;5164393;23;20275;-63
2022/02/25 01:49:00;;;;;;;8.40;2.30;;;4.00;99.90;;;;;;5165119;23;20008;-63
2022/02/25 01:51:01;;;;;;;5.60;1.83;;;4.00;99.90;;;;;;5165352;23;20073;-63
2022/02/25 01:53:07;;;;;;;4.88;1.30;;;4.00;99.90;;;;;;5165659;23;20302;-64
2022/02/25 01:55:08;;;;;;;7.07;2.17;;;4.10;99.90;;;;;;5164616;23;20035;-63
2022/02/25 01:57:11;;;;;;;3.45;1.27;;;4.00;99.90;;;;;;5165193;23;20016;-62
2022/02/25 01:59:13;;;;;;;6.85;1.52;;;4.00;99.90;;;;;;5163981;23;20427;-65
2022/02/25 02:01:13;;;;;;;6.90;2.30;;;4.00;99.90;;;;;;5163719;23;20012;-61
2022/02/25 02:03:14;;;;;;;5.93;1.98;;;4.00;99.90;;;;;;5163755;23;20067;-63
2022/02/25 02:05:15;;;;;;;5.95;1.70;;;4.10;99.90;;;;;;5162962;23;20016;-62
2022/02/25 02:07:16;;;;;;;14.15;2.72;;;4.00;99.90;;;;;;5163503;23;20014;-63
2022/02/25 02:09:16;;;;;;;6.95;1.80;;;4.00;99.90;;;;;;5163504;23;20341;-63
2022/02/25 02:11:32;;;;;;;7.40;1.80;;;4.00;99.90;;;;;;5162592;23;20089;-62
2022/02/25 02:13:32;;;;;;;8.30;2.00;;;4.10;99.90;;;;;;5163408;23;20028;-63
2022/02/25 02:15:33;;;;;;;7.32;2.17;;;4.10;99.90;;;;;;5163539;23;20012;-63
2022/02/25 02:17:34;;;;;;;4.75;1.75;;;4.10;99.90;;;;;;5163842;23;20347;-63
2022/02/25 02:19:35;;;;;;;7.88;2.17;;;4.00;99.90;;;;;;5163924;23;20091;-63
2022/02/25 02:21:41;;;;;;;8.02;1.95;;;4.00;99.90;;;;;;5162939;23;20004;-63
2022/02/25 02:23:42;;;;;;;5.68;1.73;;;4.00;99.90;;;;;;5163055;23;20008;-65
2022/02/25 02:25:42;;;;;;;9.80;1.95;;;4.00;99.90;;;;;;5163154;23;20000;-63
2022/02/25 02:30:02;;;;;;;8.65;2.53;;;4.10;99.90;;;;;;5162886;23;20420;-65
2022/02/25 02:32:03;;;;;;;8.57;2.20;;;4.10;99.90;;;;;;5163142;23;20019;-63
2022/02/25 02:34:05;;;;;;;6.90;2.55;;;4.00;99.90;;;;;;5163574;23;20023;-63
2022/02/25 02:36:07;;;;;;;9.38;2.17;;;4.10;99.90;;;;;;5162983;23;20424;-62
2022/02/25 02:38:08;;;;;;;6.30;2.28;;;4.00;99.90;;;;;;5163749;23;20074;-63
2022/02/25 02:40:10;;;;;;;5.63;1.58;;;4.00;99.90;;;;;;5163030;23;20051;-63
2022/02/25 02:42:11;;;;;;;6.50;1.77;;;4.00;99.90;;;;;;5163118;23;20084;-63
2022/02/25 02:44:11;;;;;;;9.40;2.28;;;4.00;99.90;;;;;;5162978;23;20081;-64
2022/02/25 02:46:12;;;;;;;9.00;2.28;;;4.00;99.90;;;;;;5163173;23;20084;-64
2022/02/25 02:48:14;;;;;;;10.30;2.42;;;4.00;99.90;;;;;;5163774;23;20016;-62
2022/02/25 02:50:15;;;;;;;10.15;2.15;;;4.00;99.90;;;;;;5136118;23;20020;-64
2022/02/25 02:52:15;;;;;;;11.05;2.15;;;4.10;99.90;;;;;;5164427;23;20004;-63
2022/02/25 02:54:16;;;;;;;7.57;2.13;;;4.00;99.90;;;;;;5166573;23;20474;-63
2022/02/25 02:56:17;;;;;;;10.32;2.38;;;4.00;99.90;;;;;;5165791;23;20020;-63
2022/02/25 02:58:18;;;;;;;7.70;2.10;;;4.00;99.90;;;;;;5166130;23;20015;-63
2022/02/25 03:00:18;;;;;;;8.95;1.92;;;4.00;99.90;;;;;;5165242;23;20407;-63
2022/02/25 03:02:19;;;;;;;7.45;2.15;;;4.00;99.90;;;;;;5166263;23;20054;-63
2022/02/25 03:04:19;;;;;;;6.95;2.05;;;4.10;99.90;;;;;;5166052;23;20008;-64
2022/02/25 03:06:20;;;;;;;9.18;2.20;;;4.10;99.90;;;;;;5138549;23;20081;-64
2022/02/25 03:08:21;;;;;;;8.48;2.10;;;4.10;99.90;;;;;;5167456;23;20035;-63
2022/02/25 03:10:22;;;;;;;10.15;1.80;;;4.10;99.90;;;;;;5166579;23;20012;-63
2022/02/25 03:12:22;;;;;;;7.47;1.80;;;4.10;99.90;;;;;;5139561;23;20020;-63
2022/02/25 03:14:23;;;;;;;7.65;2.10;;;4.10;99.90;;;;;;5167395;23;20436;-63
2022/02/25 03:16:24;;;;;;;9.32;2.08;;;4.10;99.90;;;;;;5166302;23;20008;-62
2022/02/25 03:18:25;;;;;;;11.88;2.08;;;4.10;99.90;;;;;;5167063;23;20075;-63
2022/02/25 03:20:26;;;;;;;6.47;1.60;;;4.10;99.90;;;;;;5166180;23;20012;-63
2022/02/25 03:22:27;;;;;;;9.00;1.80;;;4.10;99.90;;;;;;5166851;23;20026;-64
2022/02/25 03:24:27;;;;;;;8.52;1.95;;;4.10;99.90;;;;;;5166673;23;20383;-63
2022/02/25 03:26:28;;;;;;;6.93;1.70;;;4.10;99.90;;;;;;5164874;23;20036;-62
2022/02/25 03:28:29;;;;;;;8.57;1.90;;;4.20;99.90;;;;;;5166250;23;20023;-63
2022/02/25 03:30:30;;;;;;;9.18;1.83;;;4.20;99.90;;;;;;5166376;23;20340;-63
2022/02/25 03:32:30;;;;;;;9.40;2.30;;;4.20;99.90;;;;;;5166528;23;20083;-63
2022/02/25 03:34:31;;;;;;;12.52;2.15;;;4.10;99.90;;;;;;5166466;23;20103;-63
2022/02/25 03:36:32;;;;;;;7.75;2.33;;;4.20;99.90;;;;;;5165741;23;20020;-63
2022/02/25 03:38:32;;;;;;;8.77;1.90;;;4.20;99.90;;;;;;5166650;23;20019;-63
2022/02/25 03:40:33;;;;;;;7.72;2.10;;;4.20;99.90;;;;;;5166000;23;20031;-60
2022/02/25 03:42:34;;;;;;;9.38;2.45;;;4.20;99.90;;;;;;5167008;23;20008;-63
2022/02/25 03:44:35;;;;;;;6.60;2.08;;;4.20;99.90;;;;;;5166387;23;20008;-63
2022/02/25 03:46:35;;;;;;;7.40;2.00;;;4.10;99.90;;;;;;5165894;23;20122;-63
2022/02/25 03:48:36;;;;;;;9.75;1.98;;;4.10;99.90;;;;;;5166379;23;20020;-62
2022/02/25 03:50:38;;;;;;;5.53;1.75;;;4.20;99.90;;;;;;5165519;23;20035;-63
2022/02/25 03:52:38;;;;;;;7.50;1.83;;;4.20;99.90;;;;;;5165950;23;20087;-63
2022/02/25 03:54:39;;;;;;;7.50;1.92;;;4.10;99.90;;;;;;5166455;23;20008;-63
2022/02/25 03:56:39;;;;;;;8.15;1.80;;;4.10;99.90;;;;;;5165307;23;20014;-63
2022/02/25 03:58:40;;;;;;;9.65;2.20;;;4.10;99.90;;;;;;5166096;23;20047;-63
2022/02/25 04:00:41;;;;;;;9.48;2.20;;;4.10;99.90;;;;;;5165166;23;20008;-63
2022/02/25 04:02:41;;;;;;;6.75;1.75;;;4.10;99.90;;;;;;5166373;23;20008;-63
2022/02/25 04:04:42;;;;;;;10.40;2.50;;;4.10;99.90;;;;;;5137788;23;20460;-64
2022/02/25 04:06:43;;;;;;;8.13;1.75;;;4.10;99.90;;;;;;5136952;23;20013;-64
2022/02/25 04:08:43;;;;;;;9.05;1.95;;;4.20;99.90;;;;;;5164767;23;20066;-63
2022/02/25 04:10:44;;;;;;;7.93;1.90;;;4.10;99.90;;;;;;5163968;23;20015;-63
2022/02/25 04:12:44;;;;;;;12.60;2.15;;;4.10;99.90;;;;;;5165089;23;20004;-63
2022/02/25 04:14:45;;;;;;;7.03;1.98;;;4.10;99.90;;;;;;5165131;23;20000;-64
2022/02/25 04:16:50;;;;;;;11.88;2.38;;;4.10;99.90;;;;;;5163920;23;20005;-63
2022/02/25 04:18:51;;;;;;;5.32;1.88;;;4.10;99.90;;;;;;5164221;23;20450;-63
2022/02/25 04:20:52;;;;;;;15.23;2.42;;;4.10;99.90;;;;;;5165226;23;20432;-64
2022/02/25 04:22:53;;;;;;;6.85;1.90;;;4.10;99.90;;;;;;5165970;23;20008;-64
2022/02/25 04:24:53;;;;;;;6.53;1.80;;;4.10;99.90;;;;;;5165733;23;20012;-62
2022/02/25 04:26:54;;;;;;;16.92;2.50;;;4.10;99.90;;;;;;5164983;23;20004;-63
2022/02/25 04:28:54;;;;;;;6.00;1.65;;;4.10;99.90;;;;;;5165641;23;20028;-63
2022/02/25 04:30:55;;;;;;;12.65;2.13;;;4.10;99.90;;;;;;5164185;23;20463;-63
2022/02/25 04:32:56;;;;;;;5.90;1.65;;;4.10;99.90;;;;;;5139207;23;20007;-63
2022/02/25 04:34:56;;;;;;;10.98;2.40;;;4.10;99.90;;;;;;5167055;23;20031;-63
2022/02/25 04:36:57;;;;;;;6.97;2.08;;;4.10;99.90;;;;;;5166478;23;20007;-63
2022/02/25 04:38:57;;;;;;;9.43;2.17;;;4.10;99.90;;;;;;5166745;23;20436;-63
2022/02/25 04:41:01;;;;;;;10.90;2.63;;;4.10;99.90;;;;;;5165052;23;20055;-63
2022/02/25 04:43:03;;;;;;;13.20;3.15;;;4.00;99.90;;;;;;5165223;23;20506;-63
2022/02/25 04:45:06;;;;;;;8.32;2.30;;;4.00;99.90;;;;;;5163965;23;20077;-64
2022/02/25 04:47:07;;;;;;;10.45;1.95;;;4.00;99.90;;;;;;5164136;23;20098;-63
2022/02/25 04:49:08;;;;;;;9.90;2.42;;;4.00;99.90;;;;;;5164720;23;20095;-63
2022/02/25 04:51:08;;;;;;;8.10;2.03;;;4.00;99.90;;;;;;5164082;23;20285;-62
2022/02/25 04:53:09;;;;;;;9.25;2.30;;;4.00;99.90;;;;;;5164460;23;20522;-63
2022/02/25 04:55:11;;;;;;;13.55;2.50;;;4.00;99.90;;;;;;5164002;23;20004;-63
2022/02/25 04:57:12;;;;;;;11.52;2.78;;;4.00;99.90;;;;;;5164216;23;20012;-63
2022/02/25 04:59:13;;;;;;;5.70;1.70;;;3.80;99.90;;;;;;5164074;23;20087;-63
2022/02/25 05:01:13;;;;;;;11.95;2.47;;;3.90;99.90;;;;;;5162575;23;20313;-65
2022/02/25 05:03:14;;;;;;;10.20;2.28;;;3.90;99.90;;;;;;5164001;23;20363;-64
2022/02/25 05:05:15;;;;;;;11.93;2.63;;;3.90;99.90;;;;;;5163535;23;20008;-64
2022/02/25 05:07:16;;;;;;;13.57;2.75;;;3.90;99.90;;;;;;5164768;23;20016;-64
2022/02/25 05:09:16;;;;;;;13.88;2.45;;;3.90;99.90;;;;;;5164202;23;20379;-64
2022/02/25 05:11:17;;;;;;;14.00;3.28;;;3.90;99.90;;;;;;5162006;23;20012;-63
2022/02/25 05:13:18;;;;;;;8.73;2.20;;;4.00;99.90;;;;;;5162240;23;20016;-64
2022/02/25 05:20:23;;;;;;;11.23;2.33;;;3.90;99.90;;;;;;5155547;23;20007;-64
2022/02/25 05:22:24;;;;;;;5.40;1.85;;;4.00;99.90;;;;;;5132702;23;20036;-63
2022/02/25 05:24:25;;;;;;;11.18;2.63;;;4.00;99.90;;;;;;5135741;23;20072;-63
2022/02/25 05:26:26;;;;;;;11.52;2.92;;;4.00;99.90;;;;;;5162137;23;20012;-64
2022/02/25 05:28:27;;;;;;;13.27;2.78;;;4.00;99.90;;;;;;5163139;23;20467;-64
2022/02/25 05:30:28;;;;;;;9.35;2.17;;;4.00;99.90;;;;;;5162380;23;20022;-64
2022/02/25 05:32:29;;;;;;;10.43;2.87;;;3.90;99.90;;;;;;5162318;23;20539;-63
2022/02/25 05:34:30;;;;;;;6.32;2.03;;;4.00;99.90;;;;;;5163519;23;20023;-63
2022/02/25 05:36:30;;;;;;;10.85;2.55;;;4.00;99.90;;;;;;5161805;23;20012;-63
2022/02/25 05:38:31;;;;;;;8.57;2.42;;;4.00;99.90;;;;;;5163076;23;20027;-63
2022/02/25 05:40:32;;;;;;;10.93;2.45;;;4.00;99.90;;;;;;5162134;23;20057;-63
2022/02/25 05:42:34;;;;;;;10.55;2.78;;;4.00;99.90;;;;;;5162094;23;20008;-63
2022/02/25 05:44:35;;;;;;;11.68;2.45;;;4.00;99.90;;;;;;5135125;23;20348;-63
2022/02/25 05:46:35;;;;;;;12.98;2.75;;;4.00;99.90;;;;;;5161678;23;20075;-63
2022/02/25 05:48:36;;;;;;;6.97;2.03;;;3.90;99.90;;;;;;5161771;23;20421;-63
2022/02/25 05:50:37;;;;;;;15.82;2.92;;;4.00;99.90;;;;;;5156239;23;20090;-63
2022/02/25 05:52:38;;;;;;;13.45;2.53;;;4.00;99.90;;;;;;5159905;23;20008;-63
2022/02/25 05:54:38;;;;;;;9.18;2.35;;;4.00;99.90;;;;;;5160885;23;20011;-63
2022/02/25 05:56:39;;;;;;;9.52;2.35;;;4.00;99.90;;;;;;5161132;23;20074;-63
2022/02/25 05:58:40;;;;;;;9.95;2.22;;;4.00;99.90;;;;;;5134833;23;20004;-63
2022/02/25 06:00:41;;;;;;;19.50;2.70;;;4.00;99.90;;;;;;5160534;23;20015;-63
2022/02/25 06:02:43;;;;;;;14.95;2.75;;;4.00;99.90;;;;;;5161768;23;20020;-63
2022/02/25 06:04:43;;;;;;;8.50;2.22;;;4.00;99.90;;;;;;5161392;23;20032;-63
2022/02/25 06:06:44;;;;;;;12.38;2.72;;;4.00;99.90;;;;;;5161188;23;20020;-63
2022/02/25 06:08:44;;;;;;;10.45;2.38;;;4.00;99.90;;;;;;5161883;23;20082;-63
2022/02/25 06:10:45;;;;;;;13.35;2.65;;;4.00;99.90;;;;;;5160490;23;20606;-65
2022/02/25 06:12:45;;;;;;;9.68;2.65;;;4.00;99.90;;;;;;5161441;23;20293;-64
2022/02/25 06:14:46;;;;;;;8.38;2.60;;;4.10;99.90;;;;;;5161446;23;20062;-64
2022/02/25 06:16:47;;;;;;;11.52;2.45;;;4.10;99.90;;;;;;5160996;23;20083;-64
2022/02/25 06:18:48;;;;;;;11.38;2.65;;;4.00;99.90;;;;;;5161948;23;20024;-64
2022/02/25 06:20:48;;;;;;;12.55;2.42;;;4.00;99.90;;;;;;5160807;23;20427;-64
2022/02/25 06:22:49;;;;;;;13.63;2.78;;;4.10;99.90;;;;;;5132548;23;20013;-63
2022/02/25 06:24:50;;;;;;;14.27;3.03;;;4.10;99.90;;;;;;5161624;23;20474;-63
2022/02/25 06:26:50;;;;;;;10.75;2.67;;;4.00;99.90;;;;;;5159761;23;20008;-63
2022/02/25 06:28:52;;;;;;;14.05;2.90;;;4.10;99.90;;;;;;5161527;23;20032;-64
2022/02/25 06:30:55;;;;;;;14.27;2.28;;;4.10;99.90;;;;;;5159814;23;20310;-63
2022/02/25 06:32:55;;;;;;;21.75;2.97;;;4.10;99.90;;;;;;5135020;23;20012;-63
2022/02/25 06:34:56;;;;;;;20.95;3.25;;;4.10;99.90;;;;;;5162492;23;20508;-63
2022/02/25 06:36:57;;;;;;;12.35;2.70;;;4.10;99.90;;;;;;5161152;23;20020;-63
2022/02/25 06:38:57;;;;;;;11.93;2.58;;;4.00;99.90;;;;;;5163051;23;20020;-63
2022/02/25 06:40:58;;;;;;;10.40;2.67;;;4.00;99.90;;;;;;5161594;23;20012;-63
2022/02/25 06:42:58;;;;;;;13.98;5.97;;;4.10;99.90;;;;;;5162133;23;20403;-63
2022/02/25 06:44:59;;;;;;;11.65;2.63;;;4.10;99.90;;;;;;5162624;23;20000;-63
2022/02/25 06:47:00;;;;;;;9.65;2.47;;;4.10;99.90;;;;;;5160818;23;20008;-63
2022/02/25 06:49:01;;;;;;;13.27;2.75;;;4.20;99.90;;;;;;5135057;23;20357;-63
2022/02/25 06:51:01;;;;;;;10.57;2.47;;;4.20;99.90;;;;;;5158360;23;20023;-63
2022/02/25 06:53:02;;;;;;;8.57;2.13;;;4.20;99.90;;;;;;5160576;23;20383;-62
2022/02/25 06:55:03;;;;;;;9.55;2.88;;;4.10;99.90;;;;;;5161038;23;20027;-64
2022/02/25 06:57:04;;;;;;;11.38;2.55;;;4.10;99.90;;;;;;5160277;23;20472;-63
2022/02/25 06:59:04;;;;;;;15.90;2.90;;;4.20;99.90;;;;;;5161010;23;20099;-63
2022/02/25 07:01:05;;;;;;;10.10;2.28;;;4.20;99.90;;;;;;5160277;23;20034;-63
2022/02/25 07:03:06;;;;;;;10.25;2.97;;;4.30;99.90;;;;;;5161813;23;20050;-63
2022/02/25 07:05:08;;;;;;;11.68;2.38;;;4.40;99.90;;;;;;5160596;23;20009;-64
2022/02/25 07:07:10;;;;;;;14.57;2.58;;;4.40;99.90;;;;;;5160195;23;20012;-63
2022/02/25 07:09:10;;;;;;;10.63;2.53;;;4.50;99.90;;;;;;5160594;23;20027;-63
2022/02/25 07:11:11;;;;;;;13.65;2.70;;;4.50;99.90;;;;;;5160063;23;20012;-63
2022/02/25 07:13:11;;;;;;;13.75;2.88;;;4.60;99.90;;;;;;5160266;23;20458;-63
2022/02/25 07:15:12;;;;;;;7.90;2.00;;;4.60;99.90;;;;;;5160282;23;20113;-64
2022/02/25 07:17:13;;;;;;;13.70;3.22;;;4.60;99.90;;;;;;5159852;23;20096;-62
2022/02/25 07:19:13;;;;;;;15.30;3.10;;;4.60;99.90;;;;;;5161258;23;20401;-63
2022/02/25 07:21:14;;;;;;;15.18;3.00;;;4.70;99.90;;;;;;5159935;23;20080;-63
2022/02/25 07:23:16;;;;;;;13.10;3.15;;;4.70;99.90;;;;;;5160942;23;20559;-63
2022/02/25 07:25:17;;;;;;;13.52;3.38;;;4.70;99.90;;;;;;5159633;23;20019;-63
2022/02/25 07:27:18;;;;;;;19.65;3.22;;;4.70;99.90;;;;;;5160813;23;20451;-64
2022/02/25 07:29:19;;;;;;;17.80;3.88;;;4.70;99.90;;;;;;5160900;23;20012;-63
2022/02/25 07:31:19;;;;;;;12.07;2.58;;;4.60;99.90;;;;;;5159704;23;20012;-62
2022/02/25 07:33:21;;;;;;;12.40;2.85;;;4.60;99.90;;;;;;5160342;23;20035;-62
2022/02/25 07:35:23;;;;;;;10.88;3.05;;;4.60;99.90;;;;;;5160157;23;20012;-63
2022/02/25 07:37:23;;;;;;;11.55;2.78;;;4.60;99.90;;;;;;5133743;23;20017;-63
2022/02/25 07:39:24;;;;;;;11.90;2.70;;;4.60;99.90;;;;;;5161190;23;20020;-64
2022/02/25 07:41:25;;;;;;;14.50;3.03;;;4.60;99.90;;;;;;5158445;23;20012;-62
2022/02/25 07:43:26;;;;;;;15.40;3.05;;;4.60;99.90;;;;;;5163719;23;20012;-62
2022/02/25 07:45:27;;;;;;;19.63;3.17;;;4.60;99.90;;;;;;5160239;23;20023;-63
2022/02/25 07:47:27;;;;;;;12.40;2.80;;;4.60;99.90;;;;;;5162330;23;20440;-62
2022/02/25 07:49:28;;;;;;;16.30;3.08;;;4.60;99.90;;;;;;5161417;23;20012;-64
2022/02/25 07:51:29;;;;;;;19.95;3.08;;;4.60;99.90;;;;;;5162100;23;20024;-63
2022/02/25 07:53:30;;;;;;;18.13;3.08;;;4.60;99.90;;;;;;5162974;23;20511;-63
2022/02/25 07:55:31;;;;;;;19.50;3.37;;;4.70;99.90;;;;;;5162637;23;20061;-62
2022/02/25 07:57:32;;;;;;;12.35;2.65;;;4.60;99.90;;;;;;5163697;23;20016;-62
2022/02/25 07:59:33;;;;;;;16.17;2.58;;;4.70;99.90;;;;;;5135567;23;20079;-62
2022/02/25 08:01:34;;;;;;;20.27;3.20;;;4.70;99.90;;;;;;5161695;23;20058;-63
2022/02/25 08:03:34;;;;;;;18.52;2.78;;;4.70;99.90;;;;;;5162141;23;20012;-62
2022/02/25 08:05:35;;;;;;;15.18;3.03;;;4.80;99.90;;;;;;5160663;23;20046;-62
2022/02/25 08:07:36;;;;;;;15.00;2.65;;;4.70;99.90;;;;;;5160899;23;20028;-62
2022/02/25 08:09:36;;;;;;;15.30;2.50;;;4.70;99.90;;;;;;5160762;23;20012;-62
2022/02/25 08:11:37;;;;;;;16.33;3.55;;;4.70;99.90;;;;;;5161256;23;20432;-62
2022/02/25 08:13:38;;;;;;;18.58;3.30;;;4.70;99.90;;;;;;5162479;23;20012;-62
2022/02/25 08:15:39;;;;;;;12.02;2.88;;;4.70;99.90;;;;;;5161274;23;20008;-61
2022/02/25 08:17:40;;;;;;;13.60;2.95;;;4.70;99.90;;;;;;5162646;23;20013;-62
2022/02/25 08:19:40;;;;;;;12.77;2.65;;;4.70;99.90;;;;;;5162137;23;20008;-62
2022/02/25 08:21:41;;;;;;;12.52;3.10;;;4.70;99.90;;;;;;5160745;23;20011;-62
2022/02/25 08:23:43;;;;;;;11.18;2.78;;;4.70;99.90;;;;;;5161767;23;20012;-62
2022/02/25 08:25:44;;;;;;;13.32;3.20;;;4.70;99.90;;;;;;5161493;23;20020;-62
2022/02/25 08:27:44;;;;;;;16.85;3.25;;;4.80;99.90;;;;;;5161879;23;20460;-62
2022/02/25 08:29:45;;;;;;;12.13;3.00;;;4.70;99.90;;;;;;5135316;23;20040;-62
2022/02/25 08:31:47;;;;;;;14.98;3.58;;;4.80;99.90;;;;;;5159677;23;20364;-63
2022/02/25 08:33:48;;;;;;;17.27;4.05;;;4.80;99.90;;;;;;5161948;23;20043;-61
2022/02/25 08:35:48;;;;;;;16.52;3.35;;;4.80;99.90;;;;;;5161521;23;20447;-62
2022/02/25 08:37:49;;;;;;;19.92;3.58;;;4.90;99.90;;;;;;5162071;23;20062;-62
2022/02/25 08:39:50;;;;;;;14.77;3.03;;;4.90;99.90;;;;;;5161732;23;20092;-62
2022/02/25 08:41:50;;;;;;;19.75;3.53;;;4.90;99.90;;;;;;5160639;23;20004;-63
2022/02/25 08:43:51;;;;;;;14.32;3.40;;;4.90;99.90;;;;;;5161769;23;20023;-62
2022/02/25 08:45:53;;;;;;;14.63;3.00;;;4.90;99.90;;;;;;5160991;23;20364;-62
2022/02/25 08:47:54;;;;;;;15.98;3.72;;;5.00;99.90;;;;;;5161624;23;20043;-63
2022/02/25 08:49:54;;;;;;;16.85;3.63;;;5.10;99.90;;;;;;5162635;23;20019;-63
2022/02/25 08:51:55;;;;;;;19.50;3.33;;;5.10;99.90;;;;;;5161581;23;20433;-63
2022/02/25 08:53:56;;;;;;;13.05;3.28;;;5.10;99.90;;;;;;5162925;23;20016;-62
2022/02/25 08:55:56;;;;;;;14.27;3.20;;;5.10;99.90;;;;;;5162448;23;20080;-63
2022/02/25 08:57:57;;;;;;;12.75;3.20;;;5.20;99.90;;;;;;5162279;23;20031;-62
2022/02/25 08:59:58;;;;;;;13.93;3.38;;;5.20;99.90;;;;;;5162358;23;20039;-62
2022/02/25 09:01:59;;;;;;;13.00;3.60;;;5.30;99.90;;;;;;5161326;23;20023;-62
2022/02/25 09:04:01;;;;;;;9.75;2.50;;;5.30;99.90;;;;;;5162884;23;20099;-62
2022/02/25 09:06:02;;;;;;;11.05;2.92;;;5.40;99.90;;;;;;5161429;23;20062;-63
2022/02/25 09:08:03;;;;;;;12.60;3.45;;;5.40;99.90;;;;;;5161514;23;20020;-62
2022/02/25 09:10:05;;;;;;;19.50;3.72;;;5.40;99.90;;;;;;5162132;23;20452;-63
2022/02/25 09:12:07;;;;;;;17.55;3.25;;;5.40;99.90;;;;;;5161233;23;20012;-62
2022/02/25 09:14:08;;;;;;;14.45;3.20;;;5.50;99.90;;;;;;5162053;23;20008;-62
2022/02/25 09:16:09;;;;;;;14.68;3.38;;;5.50;99.90;;;;;;5160725;23;20047;-62
2022/02/25 09:18:10;;;;;;;10.57;2.95;;;5.50;99.90;;;;;;5161412;23;20441;-62
2022/02/25 09:20:12;;;;;;;12.27;3.20;;;5.50;99.90;;;;;;5160823;23;20377;-64
2022/02/25 09:22:13;;;;;;;17.70;3.65;;;5.60;99.90;;;;;;5161775;23;20004;-62
2022/02/25 09:24:14;;;;;;;15.13;4.33;;;5.60;99.90;;;;;;5161662;23;20031;-62
2022/02/25 09:26:15;;;;;;;14.50;4.38;;;5.60;99.90;;;;;;5154352;23;20016;-63
2022/02/25 09:28:16;;;;;;;18.08;3.95;;;5.70;99.90;;;;;;5160216;23;20054;-62
2022/02/25 09:30:16;;;;;;;13.18;3.72;;;5.70;99.90;;;;;;5157975;23;20012;-63
2022/02/25 09:32:17;;;;;;;18.48;3.80;;;5.70;99.90;;;;;;5160989;23;20008;-63
2022/02/25 09:34:18;;;;;;;23.38;3.63;;;5.70;99.90;;;;;;5161117;23;20008;-63
2022/02/25 09:36:19;;;;;;;10.63;2.90;;;5.80;99.90;;;;;;5159887;23;20023;-62
2022/02/25 09:38:20;;;;;;;16.45;3.53;;;5.80;99.90;;;;;;5161287;23;20020;-62
2022/02/25 09:40:21;;;;;;;11.15;3.10;;;5.80;99.90;;;;;;5158933;23;20419;-62
2022/02/25 09:42:22;;;;;;;10.40;2.97;;;5.90;99.90;;;;;;5159967;23;20020;-62
2022/02/25 09:44:24;;;;;;;15.50;3.92;;;6.00;99.90;;;;;;5160649;23;20017;-62
2022/02/25 09:46:25;;;;;;;14.05;3.28;;;6.10;99.90;;;;;;5158738;23;20331;-61
2022/02/25 09:48:25;;;;;;;22.70;3.67;;;6.20;99.90;;;;;;5162421;23;20047;-63
2022/02/25 09:50:26;;;;;;;16.45;3.13;;;6.30;99.90;;;;;;5161252;23;20016;-63
2022/02/25 09:52:28;;;;;;;24.45;3.60;;;6.40;99.90;;;;;;5162329;23;20017;-64
2022/02/25 09:54:28;;;;;;;16.98;3.72;;;6.50;99.90;;;;;;5162013;23;20026;-63
2022/02/25 09:56:29;;;;;;;15.50;2.88;;;6.50;99.90;;;;;;5161444;23;20032;-63
2022/02/25 09:58:30;;;;;;;21.90;3.15;;;6.70;99.90;;;;;;5161077;23;20016;-63
2022/02/25 10:00:32;;;;;;;16.42;3.60;;;6.80;99.90;;;;;;5136642;23;20360;-63
2022/02/25 10:02:41;;;;;;;14.10;3.63;;;6.90;99.90;;;;;;5136740;23;20020;-63
2022/02/25 10:04:42;;;;;;;16.15;4.25;;;7.00;99.90;;;;;;5136123;23;20009;-63
2022/02/25 10:06:43;;;;;;;16.92;3.80;;;7.00;99.90;;;;;;5135566;23;20091;-63
2022/02/25 10:08:44;;;;;;;13.80;3.40;;;7.10;99.90;;;;;;5136275;23;20496;-63
2022/02/25 10:10:50;;;;;;;16.58;3.25;;;7.10;99.90;;;;;;5134744;23;20019;-63
2022/02/25 10:13:02;;;;;;;16.95;3.85;;;7.10;99.90;;;;;;5135473;23;20340;-63
2022/02/25 10:15:03;;;;;;;14.60;3.33;;;7.10;99.90;;;;;;5135561;23;20515;-65
2022/02/25 10:17:08;;;;;;;17.90;3.25;;;7.10;99.90;;;;;;5136413;23;20445;-63
2022/02/25 10:19:08;;;;;;;20.38;3.55;;;7.10;99.90;;;;;;5136799;23;20770;-63
2022/02/25 10:21:12;;;;;;;9.90;2.97;;;7.10;99.90;;;;;;5135123;23;20016;-63
2022/02/25 10:23:29;;;;;;;20.67;3.65;;;7.20;99.90;;;;;;5135928;23;20015;-63
2022/02/25 10:25:34;;;;;;;16.30;4.22;;;7.20;99.90;;;;;;5137413;22;20013;-63
2022/02/25 10:27:40;;;;;;;17.73;3.53;;;7.20;99.90;;;;;;5135469;23;20013;-63
2022/02/25 10:30:00;;;;;;;13.68;3.35;;;7.20;99.90;;;;;;5136220;23;20017;-63
2022/02/25 10:32:00;;;;;;;12.05;3.15;;;7.30;99.90;;;;;;5133678;23;20015;-63
2022/02/25 10:34:11;;;;;;;17.95;3.92;;;7.40;99.90;;;;;;5137100;23;20004;-63
2022/02/25 10:36:14;;;;;;;14.05;3.30;;;7.50;99.90;;;;;;5135185;23;20021;-64
2022/02/25 10:38:18;;;;;;;20.23;4.00;;;7.60;99.90;;;;;;5134028;23;20024;-63
2022/02/25 10:40:19;;;;;;;13.80;3.10;;;7.70;99.90;;;;;;5107748;23;20019;-64
2022/02/25 10:42:24;;;;;;;18.45;3.38;;;7.70;99.90;;;;;;5135330;23;20055;-64